Time;durP1;ratioP1;P1;durP2;ratioP2;P2;SDS_P1;SDS_P2;PMS_P1;PMS_P2;Temp;Humidity;BMP_temperature;BMP_pressure;BME280_temperature;BME280_humidity;BME280_pressure;Samples;Min_cycle;Max_cycle;Signal;HPM_P1;HPM_P2
2023/03/01 00:01:28;;;;;;;18.10;10.57;;;;;;;-146.27;99.99;48425.47;5081207;28;20028;-76
2023/03/01 00:03:55;;;;;;;16.60;10.45;;;;;;;-146.27;100.00;48433.44;5083377;28;20027;-77
2023/03/01 00:06:20;;;;;;;20.95;11.45;;;;;;;-146.27;100.00;48423.50;5092045;28;20092;-76
2023/03/01 00:08:46;;;;;;;18.25;10.50;;;;;;;-146.27;100.00;48419.50;5086293;28;20035;-77
2023/03/01 00:11:14;;;;;;;17.83;11.52;;;;;;;-146.27;100.00;48417.50;5092007;28;20032;-75
2023/03/01 00:13:40;;;;;;;14.82;9.70;;;;;;;-146.27;100.00;48425.47;5079178;28;20476;-76
2023/03/01 00:16:08;;;;;;;17.50;10.98;;;;;;;-146.27;100.00;48447.38;5083651;28;20099;-74
2023/03/01 00:18:34;;;;;;;15.55;9.82;;;;;;;-146.27;100.00;48443.41;5076248;28;20624;-75
2023/03/01 00:20:59;;;;;;;18.23;10.75;;;;;;;-146.27;100.00;48413.53;5089752;28;20016;-76
2023/03/01 00:23:25;;;;;;;17.88;10.15;;;;;;;-146.27;100.00;48469.31;5087918;28;20503;-76
2023/03/01 00:25:51;;;;;;;17.67;11.20;;;;;;;-146.27;100.00;48415.53;5084788;28;20028;-77
2023/03/01 00:28:17;;;;;;;17.65;10.82;;;;;;;-146.27;100.00;48429.47;5089348;28;20741;-76
2023/03/01 00:30:42;;;;;;;14.55;10.27;;;;;;;-146.27;100.00;48417.50;5085619;28;20026;-77
2023/03/01 00:33:08;;;;;;;19.27;10.93;;;;;;;-146.27;100.00;48439.41;5082941;28;20536;-78
2023/03/01 00:35:34;;;;;;;15.68;9.90;;;;;;;-146.27;100.00;48439.41;5078555;28;20024;-76
2023/03/01 00:38:00;;;;;;;18.27;11.02;;;;;;;-146.27;100.00;48417.50;5090335;28;20028;-76
2023/03/01 00:40:27;;;;;;;19.67;11.25;;;;;;;-146.27;100.00;48429.47;5081814;28;20026;-74
2023/03/01 00:42:52;;;;;;;19.65;11.23;;;;;;;-146.27;100.00;48447.38;5079744;28;20032;-76
2023/03/01 00:45:18;;;;;;;21.98;12.63;;;;;;;-146.27;100.00;48443.41;5084082;28;20125;-76
2023/03/01 00:47:43;;;;;;;19.30;11.93;;;;;;;-146.27;100.00;48395.59;5079887;28;20055;-76
2023/03/01 00:50:10;;;;;;;18.13;10.77;;;;;;;-146.27;100.00;48415.53;5084766;28;20811;-76
2023/03/01 00:52:36;;;;;;;23.13;11.85;;;;;;;-146.27;100.00;48469.31;5084886;28;20043;-75
2023/03/01 00:55:01;;;;;;;21.95;12.23;;;;;;;-146.27;100.00;48455.34;5080082;28;20559;-77
2023/03/01 00:57:27;;;;;;;16.10;10.57;;;;;;;-146.27;100.00;48451.38;5084647;28;20093;-76
2023/03/01 00:59:52;;;;;;;21.10;11.35;;;;;;;-146.27;100.00;48471.28;5090200;28;20567;-77
2023/03/01 01:02:18;;;;;;;22.48;11.68;;;;;;;-146.27;100.00;48427.47;5079243;28;20024;-75
2023/03/01 01:04:44;;;;;;;19.52;12.35;;;;;;;-146.27;100.00;48447.38;5081775;28;20031;-76
2023/03/01 01:07:09;;;;;;;21.17;12.30;;;;;;;-146.27;100.00;48423.50;5088718;28;20044;-76
2023/03/01 01:09:35;;;;;;;21.33;12.40;;;;;;;-146.27;100.00;48423.50;5081657;28;20031;-76
2023/03/01 01:12:01;;;;;;;18.75;12.50;;;;;;;-146.27;100.00;48471.28;5081967;28;20020;-75
2023/03/01 01:14:27;;;;;;;21.50;12.32;;;;;;;-146.27;100.00;48451.38;5081736;28;20097;-76
2023/03/01 01:16:53;;;;;;;22.38;12.45;;;;;;;-146.27;100.00;48435.44;5082915;28;20044;-77
2023/03/01 01:19:18;;;;;;;21.73;12.00;;;;;;;-146.27;100.00;48481.25;5077861;28;20043;-77
2023/03/01 01:21:44;;;;;;;23.95;11.73;;;;;;;-146.27;100.00;48415.53;5084303;28;20020;-76
2023/03/01 01:24:10;;;;;;;24.05;12.52;;;;;;;-146.27;100.00;48455.34;5080298;28;20514;-77
2023/03/01 01:26:36;;;;;;;25.30;14.13;;;;;;;-146.27;100.00;48453.38;5080649;28;20028;-76
2023/03/01 01:29:03;;;;;;;22.17;13.25;;;;;;;-146.27;100.00;48455.34;5081653;28;20050;-77
2023/03/01 01:31:29;;;;;;;25.63;12.88;;;;;;;-146.27;100.00;48467.31;5081268;28;20028;-74
2023/03/01 01:33:56;;;;;;;23.98;12.32;;;;;;;-146.27;100.00;48455.34;5079987;28;20036;-76
2023/03/01 01:36:22;;;;;;;27.73;12.82;;;;;;;-146.27;100.00;48415.53;5085022;28;20020;-75
2023/03/01 01:38:47;;;;;;;23.55;13.15;;;;;;;-146.27;100.00;48437.44;5082763;28;20039;-76
2023/03/01 01:41:14;;;;;;;31.48;13.90;;;;;;;-146.27;100.00;48429.47;5084615;28;20527;-76
2023/03/01 01:43:42;;;;;;;27.23;14.25;;;;;;;-146.27;100.00;48443.41;5082356;28;20031;-77
2023/03/01 01:46:31;;;;;;;25.02;13.82;;;;;;;-146.27;100.00;48457.34;5083886;28;20030;-76
2023/03/01 01:49:03;;;;;;;30.98;13.90;;;;;;;-146.27;100.00;48427.47;5078646;28;20055;-76
2023/03/01 01:51:38;;;;;;;24.80;14.10;;;;;;;-146.27;100.00;48439.41;5079816;28;20036;-77
2023/03/01 01:54:08;;;;;;;26.50;13.20;;;;;;;-146.27;100.00;48435.44;5082695;28;20032;-77
2023/03/01 01:56:34;;;;;;;26.20;12.98;;;;;;;-146.27;100.00;48433.44;5080909;28;20103;-76
2023/03/01 01:59:01;;;;;;;24.95;14.13;;;;;;;-146.27;100.00;48455.34;5085517;28;20120;-75
2023/03/01 02:01:26;;;;;;;25.38;13.20;;;;;;;-146.27;100.00;48411.53;5079950;28;20027;-77
2023/03/01 02:03:52;;;;;;;35.17;14.40;;;;;;;-146.27;100.00;48423.50;5080542;28;20036;-77
2023/03/01 02:06:31;;;;;;;23.55;13.10;;;;;;;-146.27;100.00;48451.38;5085749;28;20044;-76
2023/03/01 02:09:06;;;;;;;26.25;13.25;;;;;;;-146.27;100.00;48421.50;5085065;28;20031;-76
2023/03/01 02:11:33;;;;;;;22.98;12.50;;;;;;;-146.27;100.00;48423.50;5080330;28;20055;-76
2023/03/01 02:13:59;;;;;;;25.88;13.32;;;;;;;-146.27;100.00;48455.34;5083636;28;20029;-78
2023/03/01 02:16:26;;;;;;;23.45;13.30;;;;;;;-146.27;100.00;48425.47;5080005;28;20525;-76
2023/03/01 02:18:53;;;;;;;24.08;13.75;;;;;;;-146.27;100.00;48437.44;5079750;28;20114;-77
2023/03/01 02:21:52;;;;;;;26.77;13.77;;;;;;;-146.27;100.00;48433.44;5084755;28;20028;-76
2023/03/01 02:24:39;;;;;;;25.33;13.27;;;;;;;-146.27;100.00;48427.47;5076584;28;20032;-76
2023/03/01 02:27:05;;;;;;;30.38;13.73;;;;;;;-146.27;100.00;48437.44;5082376;28;20119;-78
2023/03/01 02:29:30;;;;;;;24.30;13.80;;;;;;;-146.27;100.00;48453.38;5080700;28;20106;-77
2023/03/01 02:31:59;;;;;;;24.42;12.98;;;;;;;-146.27;100.00;48437.44;5079556;28;20028;-77
2023/03/01 02:34:26;;;;;;;27.27;14.23;;;;;;;-146.27;100.00;48435.44;5077181;28;20066;-78
2023/03/01 02:37:04;;;;;;;25.73;14.45;;;;;;;-146.27;100.00;48421.50;5078897;28;20024;-78
2023/03/01 02:39:49;;;;;;;30.30;14.75;;;;;;;-146.27;100.00;48427.47;5079877;28;20020;-76
2023/03/01 02:42:21;;;;;;;29.17;15.20;;;;;;;-146.27;100.00;48465.31;5082043;28;20061;-76
2023/03/01 02:44:49;;;;;;;32.67;16.15;;;;;;;-146.27;100.00;48443.41;5083155;28;20411;-74
2023/03/01 02:47:14;;;;;;;27.30;14.75;;;;;;;-146.27;100.00;48431.47;5079232;28;20036;-75
2023/03/01 02:49:39;;;;;;;32.05;16.20;;;;;;;-146.27;100.00;48427.47;5081053;28;20036;-74
2023/03/01 02:52:35;;;;;;;35.78;15.30;;;;;;;-146.27;100.00;48445.41;5077453;28;20663;-76
2023/03/01 02:55:08;;;;;;;29.67;15.48;;;;;;;-146.27;100.00;48403.56;5077948;28;20460;-77
2023/03/01 02:57:36;;;;;;;32.30;15.20;;;;;;;-146.27;100.00;48439.41;5081838;28;20579;-76
2023/03/01 03:00:19;;;;;;;31.88;16.17;;;;;;;-146.27;100.00;48455.34;5081206;28;20028;-77
2023/03/01 03:02:45;;;;;;;30.65;14.95;;;;;;;-146.27;100.00;48467.31;5076047;28;20090;-75
2023/03/01 03:05:20;;;;;;;32.65;16.88;;;;;;;-146.27;100.00;48465.31;5081145;28;20024;-75
2023/03/01 03:07:48;;;;;;;33.22;15.85;;;;;;;-146.27;100.00;48427.47;5081949;28;20056;-76
2023/03/01 03:10:23;;;;;;;34.65;16.25;;;;;;;-146.27;100.00;48439.41;5083066;28;20020;-76
2023/03/01 03:12:51;;;;;;;36.58;16.02;;;;;;;-146.27;100.00;48467.31;5083410;28;20040;-76
2023/03/01 03:15:17;;;;;;;30.35;17.30;;;;;;;-146.27;100.00;48449.38;5077901;28;20408;-76
2023/03/01 03:17:43;;;;;;;32.85;16.30;;;;;;;-146.27;100.00;48453.38;5079654;28;20364;-74
2023/03/01 03:20:11;;;;;;;35.05;16.50;;;;;;;-146.27;100.00;48419.50;5077653;28;20028;-76
2023/03/01 03:22:39;;;;;;;38.05;19.08;;;;;;;-146.27;100.00;48421.50;5079009;28;21425;-76
2023/03/01 03:25:05;;;;;;;49.50;18.73;;;;;;;-146.27;100.00;48451.38;5079052;28;20762;-75
2023/03/01 03:27:31;;;;;;;52.88;20.52;;;;;;;-146.27;100.00;48443.41;5082509;28;20059;-76
2023/03/01 03:29:57;;;;;;;73.13;20.33;;;;;;;-146.27;100.00;48449.38;5079909;28;20423;-76
2023/03/01 03:32:22;;;;;;;109.28;20.77;;;;;;;-146.27;100.00;48439.41;5076759;28;20476;-77
2023/03/01 03:34:49;;;;;;;42.67;19.40;;;;;;;-146.27;100.00;48453.38;5080013;28;20060;-77
2023/03/01 03:38:01;;;;;;;66.35;20.27;;;;;;;-146.27;100.00;48471.28;5082228;28;20031;-76
2023/03/01 03:39:59;;;;;;;108.97;20.35;;;;;;;-146.27;100.00;48451.38;5079655;28;20093;-76
2023/03/01 03:42:24;;;;;;;99.15;19.20;;;;;;;-146.27;100.00;48455.34;5077283;28;20027;-76
2023/03/01 03:44:50;;;;;;;62.40;18.25;;;;;;;-146.27;100.00;48419.50;5083958;28;20383;-76
2023/03/01 03:47:15;;;;;;;83.82;19.10;;;;;;;-146.27;100.00;48413.53;5080350;28;20020;-75
2023/03/01 03:49:40;;;;;;;116.45;16.25;;;;;;;-146.27;100.00;48423.50;5078362;28;20019;-74
2023/03/01 03:52:13;;;;;;;109.93;16.67;;;;;;;-146.27;100.00;48463.31;5081857;28;20028;-77
2023/03/01 03:54:42;;;;;;;75.15;16.73;;;;;;;-146.27;100.00;48443.41;5079023;28;20031;-76
2023/03/01 03:57:07;;;;;;;220.45;19.73;;;;;;;-146.27;100.00;48449.38;5079353;28;20032;-76
2023/03/01 03:59:33;;;;;;;170.95;18.27;;;;;;;-146.27;100.00;48421.50;5085660;28;20035;-76
2023/03/01 04:01:58;;;;;;;283.65;19.45;;;;;;;-146.27;100.00;48439.41;5083811;28;20052;-75
2023/03/01 04:04:24;;;;;;;160.27;17.35;;;;;;;-146.27;100.00;48491.22;5077416;28;20060;-75
2023/03/01 04:06:49;;;;;;;51.60;15.70;;;;;;;-146.27;100.00;48451.38;5079609;28;20071;-75
2023/03/01 04:09:14;;;;;;;270.27;20.55;;;;;;;-146.27;100.00;48461.34;5078351;28;20024;-76
2023/03/01 04:11:40;;;;;;;221.05;18.30;;;;;;;-146.27;100.00;48417.50;5081724;28;20027;-77
2023/03/01 04:14:05;;;;;;;128.30;17.95;;;;;;;-146.27;100.00;48427.47;5082008;28;20020;-75
2023/03/01 04:16:30;;;;;;;28.85;15.73;;;;;;;-146.27;100.00;48451.38;5078659;28;20483;-77
2023/03/01 04:18:59;;;;;;;76.18;17.65;;;;;;;-146.27;100.00;48439.41;5080851;28;20058;-76
2023/03/01 04:21:24;;;;;;;140.10;18.88;;;;;;;-146.27;100.00;48437.44;5077825;28;20422;-76
2023/03/01 04:23:52;;;;;;;125.97;18.45;;;;;;;-146.27;100.00;48427.47;5078031;28;20020;-75
2023/03/01 04:26:18;;;;;;;118.68;18.70;;;;;;;-146.27;100.00;48455.34;5079893;28;20524;-75
2023/03/01 04:28:45;;;;;;;147.02;19.60;;;;;;;-146.27;100.00;48439.41;5076818;28;20123;-77
2023/03/01 04:31:17;;;;;;;242.98;20.60;;;;;;;-146.27;100.00;48475.28;5075222;28;20028;-74
2023/03/01 04:33:53;;;;;;;138.95;18.13;;;;;;;-146.27;100.00;48487.22;5076147;28;20646;-76
2023/03/01 04:36:21;;;;;;;163.98;19.95;;;;;;;-146.27;100.00;48455.34;5080189;28;20468;-76
2023/03/01 04:38:49;;;;;;;307.98;20.90;;;;;;;-146.27;100.00;48423.50;5080224;28;20464;-76
2023/03/01 04:41:19;;;;;;;277.88;20.67;;;;;;;-146.27;100.00;48419.50;5074322;28;20020;-76
2023/03/01 04:43:45;;;;;;;117.30;18.58;;;;;;;-146.27;100.00;48423.50;5079840;28;20379;-75
2023/03/01 04:46:17;;;;;;;133.10;18.58;;;;;;;-146.27;100.00;48443.41;5084124;28;20024;-77
2023/03/01 04:48:44;;;;;;;157.45;19.30;;;;;;;-146.27;100.00;48443.41;5077735;28;20076;-74
2023/03/01 04:51:13;;;;;;;187.68;19.48;;;;;;;-146.27;100.00;48405.56;5081333;28;20054;-76
2023/03/01 04:53:39;;;;;;;108.05;18.35;;;;;;;-146.27;100.00;48427.47;5076991;28;20410;-76
2023/03/01 04:56:05;;;;;;;181.15;19.75;;;;;;;-146.27;100.00;48427.47;5079209;28;20103;-74
2023/03/01 04:58:31;;;;;;;141.57;19.40;;;;;;;-146.27;100.00;48481.25;5078962;28;20580;-76
2023/03/01 05:00:56;;;;;;;62.05;17.83;;;;;;;-146.27;100.00;48435.44;5083002;28;20023;-75
2023/03/01 05:03:22;;;;;;;115.47;18.85;;;;;;;-146.27;100.00;48441.41;5088443;28;20492;-78
2023/03/01 05:05:49;;;;;;;126.85;18.27;;;;;;;-146.27;100.00;48459.34;5085495;28;20402;-74
2023/03/01 05:08:18;;;;;;;85.25;17.88;;;;;;;-146.27;100.00;48433.44;5081350;28;20114;-76
2023/03/01 05:10:46;;;;;;;110.50;18.23;;;;;;;-146.27;100.00;48417.50;5078080;28;20387;-76
2023/03/01 05:13:20;;;;;;;97.22;16.83;;;;;;;-146.27;100.00;48423.50;5080274;28;20039;-77
2023/03/01 05:15:48;;;;;;;111.13;18.48;;;;;;;-146.27;100.00;48463.31;5078776;28;20380;-74
2023/03/01 05:18:13;;;;;;;56.03;17.00;;;;;;;-146.27;100.00;48467.31;5075984;28;20061;-77
2023/03/01 05:20:39;;;;;;;71.85;19.63;;;;;;;-146.27;100.00;48461.34;5077691;28;20024;-76
2023/03/01 05:23:05;;;;;;;44.97;18.38;;;;;;;-146.27;100.00;48455.34;5077916;28;20490;-78
2023/03/01 05:25:39;;;;;;;43.15;17.20;;;;;;;-146.27;100.00;48407.56;5082250;28;20028;-76
2023/03/01 05:28:06;;;;;;;30.60;16.25;;;;;;;-146.27;100.00;48461.34;5082476;28;20679;-76
2023/03/01 05:30:33;;;;;;;39.83;16.35;;;;;;;-146.27;100.00;48423.50;5083749;28;20379;-76
2023/03/01 05:32:59;;;;;;;35.97;15.43;;;;;;;-146.27;100.00;48447.38;5083121;28;20039;-76
2023/03/01 05:35:25;;;;;;;32.75;16.90;;;;;;;-146.27;100.00;48443.41;5082440;28;20492;-76
2023/03/01 05:37:51;;;;;;;44.85;17.00;;;;;;;-146.27;100.00;48447.38;5084739;28;20030;-76
2023/03/01 05:40:22;;;;;;;45.20;17.30;;;;;;;-146.27;100.00;48467.31;5080044;28;20447;-73
2023/03/01 05:42:53;;;;;;;34.95;15.02;;;;;;;-146.27;100.00;48411.53;5083361;28;20038;-77
2023/03/01 05:45:18;;;;;;;23.83;14.55;;;;;;;-146.27;100.00;48459.34;5087069;28;20112;-76
2023/03/01 05:47:45;;;;;;;25.98;15.02;;;;;;;-146.27;100.00;48447.38;5081933;28;20463;-77
2023/03/01 05:50:13;;;;;;;29.52;13.55;;;;;;;-146.27;100.00;48439.41;5081846;28;20034;-76
2023/03/01 05:52:38;;;;;;;25.55;12.75;;;;;;;-146.27;100.00;48457.34;5086461;28;20024;-76
2023/03/01 05:55:04;;;;;;;23.70;13.65;;;;;;;-146.27;100.00;48421.50;5080505;28;20039;-77
2023/03/01 05:57:29;;;;;;;20.13;12.85;;;;;;;-146.27;100.00;48451.38;5093206;28;20024;-77
2023/03/01 05:59:55;;;;;;;24.05;12.43;;;;;;;-146.27;100.00;48449.38;5083543;28;20488;-77
2023/03/01 06:02:20;;;;;;;104.35;14.32;;;;;;;-146.27;100.00;48451.38;5089310;28;20020;-75
2023/03/01 06:04:45;;;;;;;35.22;12.63;;;;;;;-146.27;100.00;48443.41;5091552;28;20024;-76
2023/03/01 06:07:11;;;;;;;24.42;13.23;;;;;;;-146.27;100.00;48463.31;5091269;28;20048;-76
2023/03/01 06:09:36;;;;;;;63.25;14.32;;;;;;;-146.27;100.00;48455.34;5083260;28;20027;-76
2023/03/01 06:12:01;;;;;;;92.35;15.77;;;;;;;-146.27;100.00;48443.41;5093230;28;20396;-76
2023/03/01 06:14:27;;;;;;;21.52;13.50;;;;;;;-146.27;100.00;48429.47;5093469;28;20032;-74
2023/03/01 06:16:52;;;;;;;26.40;13.57;;;;;;;-146.27;100.00;48489.22;5093112;28;20028;-77
2023/03/01 06:19:17;;;;;;;35.58;15.57;;;;;;;-146.27;100.00;48487.22;5092915;28;20489;-74
2023/03/01 06:21:43;;;;;;;84.68;16.63;;;;;;;-146.27;100.00;48473.28;5087749;28;20114;-75
2023/03/01 06:24:09;;;;;;;105.32;17.98;;;;;;;-146.27;100.00;48439.41;5093122;28;20640;-75
2023/03/01 06:26:34;;;;;;;51.63;16.17;;;;;;;-146.27;100.00;48415.53;5090856;28;20194;-75
2023/03/01 06:28:59;;;;;;;65.47;16.77;;;;;;;-146.27;100.00;48441.41;5083469;28;20032;-76
2023/03/01 06:31:25;;;;;;;49.67;17.15;;;;;;;-146.27;100.00;48451.38;5091627;28;20111;-76
2023/03/01 06:33:50;;;;;;;79.22;17.08;;;;;;;-146.27;100.00;48463.31;5088910;28;20020;-76
2023/03/01 06:36:18;;;;;;;45.47;15.70;;;;;;;-146.27;100.00;48489.22;5090857;28;20016;-76
2023/03/01 06:38:44;;;;;;;52.08;17.85;;;;;;;-146.27;100.00;48447.38;5090870;28;20099;-78
2023/03/01 06:41:09;;;;;;;35.42;17.10;;;;;;;-146.27;100.00;48479.25;5077808;28;20036;-77
2023/03/01 06:43:34;;;;;;;91.47;16.70;;;;;;;-146.27;100.00;48475.28;5089167;28;20020;-75
2023/03/01 06:46:00;;;;;;;91.47;15.98;;;;;;;-146.27;100.00;48465.31;5090499;28;20032;-77
2023/03/01 06:48:26;;;;;;;97.78;17.00;;;;;;;-146.27;100.00;48483.25;5090716;28;20029;-77
2023/03/01 06:50:52;;;;;;;72.95;16.45;;;;;;;-146.27;100.00;48445.41;5092976;28;20490;-78
2023/03/01 06:53:18;;;;;;;49.28;16.55;;;;;;;-146.27;100.00;48435.44;5094400;28;20028;-76
2023/03/01 06:55:43;;;;;;;35.22;17.48;;;;;;;-146.27;100.00;48419.50;5088562;28;20429;-78
2023/03/01 06:58:09;;;;;;;36.10;16.38;;;;;;;-146.27;100.00;48503.16;5091340;28;20032;-76
2023/03/01 07:00:34;;;;;;;40.90;17.05;;;;;;;-146.27;100.00;48445.41;5086548;28;20051;-78
2023/03/01 07:03:02;;;;;;;44.85;16.75;;;;;;;-146.27;100.00;48431.47;5092375;28;20016;-77
2023/03/01 07:05:28;;;;;;;27.92;15.13;;;;;;;-146.27;100.00;48473.28;5084165;28;20491;-76
2023/03/01 07:07:54;;;;;;;30.23;15.10;;;;;;;-146.27;100.00;48413.53;5089339;28;20044;-75
2023/03/01 07:10:20;;;;;;;32.70;16.38;;;;;;;-146.27;100.00;48459.34;5085744;28;20027;-77
2023/03/01 07:12:46;;;;;;;35.95;16.63;;;;;;;-146.27;100.00;48471.28;5074398;28;20024;-75
2023/03/01 07:15:11;;;;;;;28.35;15.98;;;;;;;-146.27;100.00;48427.47;5087951;28;20028;-75
2023/03/01 07:17:37;;;;;;;29.30;16.25;;;;;;;-146.27;100.00;48421.50;5086960;28;20032;-76
2023/03/01 07:20:03;;;;;;;32.92;16.10;;;;;;;-146.27;100.00;48445.41;5088876;28;20035;-76
2023/03/01 07:22:28;;;;;;;32.97;16.83;;;;;;;-146.27;100.00;48459.34;5089573;28;20034;-76
2023/03/01 07:24:54;;;;;;;31.95;16.42;;;;;;;-146.27;100.00;48459.34;5087237;28;20032;-75
2023/03/01 07:27:19;;;;;;;30.10;15.80;;;;;;;-146.27;100.00;48475.28;5088227;28;20493;-77
2023/03/01 07:29:46;;;;;;;32.95;17.17;;;;;;;-146.27;100.00;48427.47;5089627;28;20676;-77
2023/03/01 07:32:11;;;;;;;28.55;15.90;;;;;;;-146.27;100.00;48465.31;5089081;28;20025;-77
2023/03/01 07:34:37;;;;;;;31.90;18.02;;;;;;;-146.27;100.00;48433.44;5091242;28;20020;-78
2023/03/01 07:37:02;;;;;;;31.02;18.38;;;;;;;-146.27;100.00;48443.41;5088338;28;20015;-78
2023/03/01 07:39:28;;;;;;;34.70;17.90;;;;;;;-146.27;100.00;48427.47;5091515;28;20045;-77
2023/03/01 07:41:53;;;;;;;33.28;17.63;;;;;;;-146.27;100.00;48459.34;5088263;28;20699;-76
2023/03/01 07:44:18;;;;;;;33.03;17.98;;;;;;;-146.27;100.00;48463.31;5089187;28;20028;-75
2023/03/01 07:46:44;;;;;;;32.10;17.50;;;;;;;-146.27;100.00;48459.34;5089365;28;20051;-74
2023/03/01 07:49:10;;;;;;;34.83;18.70;;;;;;;-146.27;100.00;48419.50;5083191;28;20468;-75
2023/03/01 07:51:35;;;;;;;33.03;17.50;;;;;;;-146.27;100.00;48493.19;5092200;28;20028;-76
2023/03/01 07:54:01;;;;;;;33.17;18.63;;;;;;;-146.27;100.00;48443.41;5087584;28;20047;-76
2023/03/01 07:56:26;;;;;;;29.50;17.05;;;;;;;-146.27;100.00;48449.38;5084907;28;20024;-74
2023/03/01 07:58:52;;;;;;;31.88;17.70;;;;;;;-146.27;100.00;48453.38;5078682;28;20020;-75
2023/03/01 08:01:20;;;;;;;35.17;18.92;;;;;;;-146.27;100.00;48457.34;5086311;28;20020;-76
2023/03/01 08:03:45;;;;;;;41.00;20.80;;;;;;;-146.27;100.00;48467.31;5086967;28;20038;-74
2023/03/01 08:06:13;;;;;;;38.03;20.80;;;;;;;-146.27;100.00;48471.28;5090587;28;20488;-76
2023/03/01 08:08:39;;;;;;;45.80;21.13;;;;;;;-146.27;100.00;48443.41;5088293;28;20033;-75
2023/03/01 08:11:05;;;;;;;41.33;21.23;;;;;;;-146.27;100.00;48475.28;5091039;28;20386;-75
2023/03/01 08:13:31;;;;;;;43.67;20.10;;;;;;;-146.27;100.00;48479.25;5089986;28;20107;-74
2023/03/01 08:16:05;;;;;;;45.85;21.63;;;;;;;-146.27;100.00;48451.38;5091499;28;20108;-76
2023/03/01 08:18:31;;;;;;;45.35;23.25;;;;;;;-146.27;100.00;48455.34;5085163;28;20149;-75
2023/03/01 08:21:01;;;;;;;40.72;20.85;;;;;;;-146.27;100.00;48457.34;5083531;28;20106;-75
2023/03/01 08:23:27;;;;;;;41.65;23.25;;;;;;;-146.27;100.00;48439.41;5090371;28;20030;-75
2023/03/01 08:25:52;;;;;;;38.67;20.17;;;;;;;-146.27;100.00;48429.47;5089548;28;20024;-75
2023/03/01 08:28:18;;;;;;;36.38;19.75;;;;;;;-146.27;100.00;48465.31;5086753;28;20047;-74
2023/03/01 08:30:43;;;;;;;37.72;19.23;;;;;;;-146.27;100.00;48467.31;5079720;28;20406;-73
2023/03/01 08:33:08;;;;;;;35.50;19.70;;;;;;;-146.27;100.00;48479.25;5092100;28;20078;-74
2023/03/01 08:35:34;;;;;;;34.30;18.83;;;;;;;-146.27;100.00;48455.34;5090104;28;20032;-75
2023/03/01 08:37:59;;;;;;;33.33;19.00;;;;;;;-146.27;100.00;48421.50;5079513;28;20356;-76
2023/03/01 08:40:24;;;;;;;33.85;18.65;;;;;;;-146.27;100.00;48455.34;5086841;28;20055;-76
2023/03/01 08:42:50;;;;;;;31.30;18.35;;;;;;;-146.27;100.00;48471.28;5087149;28;20048;-77
2023/03/01 08:45:18;;;;;;;29.10;17.33;;;;;;;-146.27;100.00;48435.44;5083161;28;20052;-76
2023/03/01 08:47:44;;;;;;;28.88;17.25;;;;;;;-146.27;100.00;48457.34;5086993;28;20426;-74
2023/03/01 08:50:09;;;;;;;33.67;19.67;;;;;;;-146.27;100.00;48439.41;5087406;28;20020;-76
2023/03/01 08:52:35;;;;;;;34.28;18.95;;;;;;;-146.27;100.00;48427.47;5088670;28;20062;-76
2023/03/01 08:55:01;;;;;;;34.58;18.85;;;;;;;-146.27;100.00;48447.38;5089289;28;20017;-76
2023/03/01 08:57:26;;;;;;;36.10;17.95;;;;;;;-146.27;100.00;48453.38;5082092;28;20034;-75
2023/03/01 08:59:52;;;;;;;34.70;19.15;;;;;;;-146.27;100.00;48419.50;5086734;28;20028;-75
2023/03/01 09:02:18;;;;;;;37.33;19.10;;;;;;;-146.27;100.00;48439.41;5094611;28;20364;-75
2023/03/01 09:04:44;;;;;;;33.13;20.02;;;;;;;-146.27;100.00;48427.47;5076166;28;20513;-76
2023/03/01 09:07:10;;;;;;;34.80;19.00;;;;;;;-146.27;100.00;48483.25;5075581;28;20032;-76
2023/03/01 09:09:36;;;;;;;28.63;17.35;;;;;;;-146.27;100.00;48475.28;5074159;28;20285;-76
2023/03/01 09:12:03;;;;;;;29.92;16.60;;;;;;;-146.27;100.00;48439.41;5090313;28;20447;-76
2023/03/01 09:14:28;;;;;;;28.35;17.25;;;;;;;-146.27;100.00;48443.41;5093639;28;20464;-76
2023/03/01 09:16:54;;;;;;;36.05;17.90;;;;;;;-146.27;100.00;48483.25;5095616;28;20024;-76
2023/03/01 09:19:19;;;;;;;28.08;15.73;;;;;;;-146.27;100.00;48447.38;5095476;28;20035;-76
2023/03/01 09:21:51;;;;;;;29.88;16.67;;;;;;;-146.27;100.00;48459.34;5093585;28;20104;-76
2023/03/01 09:24:18;;;;;;;26.40;14.98;;;;;;;-146.27;100.00;48445.41;5092052;28;20028;-75
2023/03/01 09:26:46;;;;;;;23.80;13.18;;;;;;;-146.27;100.00;48425.47;5093507;28;20028;-75
2023/03/01 09:29:12;;;;;;;21.50;12.95;;;;;;;-146.27;100.00;48407.56;5095366;28;20020;-77
2023/03/01 09:31:37;;;;;;;23.00;12.38;;;;;;;-146.27;100.00;48425.47;5093192;28;20470;-77
2023/03/01 09:34:03;;;;;;;21.05;11.27;;;;;;;-146.27;100.00;48423.50;5074444;28;20028;-75
2023/03/01 09:36:28;;;;;;;16.67;11.50;;;;;;;-146.27;98.07;48457.34;5081025;28;20365;-76
2023/03/01 09:38:54;;;;;;;19.13;12.18;;;;;;;-146.27;96.01;48425.47;5092931;28;20031;-76
2023/03/01 09:41:47;;;;;;;19.83;11.57;;;;;;;-146.27;93.52;48427.47;5095303;28;20141;-76
2023/03/01 09:44:29;;;;;;;18.63;11.15;;;;;;;-146.27;91.93;48439.41;5093991;28;20028;-74
2023/03/01 09:46:56;;;;;;;16.80;11.27;;;;;;;-146.27;90.29;48431.47;5093651;28;20024;-75
2023/03/01 09:49:26;;;;;;;14.85;10.18;;;;;;;-146.27;88.53;48429.47;5094848;28;20024;-75
2023/03/01 09:52:03;;;;;;;14.75;9.15;;;;;;;-146.27;86.66;48407.56;5094720;28;20034;-76
2023/03/01 09:54:30;;;;;;;15.55;9.65;;;;;;;-146.27;82.45;48423.50;5094798;28;20032;-76
2023/03/01 09:57:09;;;;;;;17.08;10.52;;;;;;;-146.27;78.74;48403.56;5080552;28;20029;-76
2023/03/01 09:59:59;;;;;;;11.70;7.68;;;;;;;-146.27;75.99;48421.50;5074556;28;20032;-75
2023/03/01 10:02:41;;;;;;;11.13;6.75;;;;;;;-146.27;72.73;48429.47;5075175;28;20035;-74
2023/03/01 10:05:27;;;;;;;11.45;7.07;;;;;;;-146.27;68.74;48377.69;5074407;28;20028;-74
2023/03/01 10:08:05;;;;;;;9.43;6.28;;;;;;;-146.27;67.89;48399.59;5083407;28;20866;-75
2023/03/01 10:10:39;;;;;;;10.38;5.80;;;;;;;-146.27;65.47;48411.53;5092596;28;20031;-74
2023/03/01 10:13:28;;;;;;;;;;;;;;;-146.27;57.44;48407.56;5092896;28;20036;-76
2023/03/01 10:15:58;;;;;;;7.38;5.57;;;;;;;-146.27;61.32;48399.59;5061523;28;19912;-77
2023/03/01 10:18:28;;;;;;;16.42;6.05;;;;;;;-146.27;60.92;48411.53;5080317;28;20495;-74
2023/03/01 10:20:59;;;;;;;9.43;6.35;;;;;;;-146.27;60.13;48423.50;5072807;28;20033;-76
2023/03/01 10:23:27;;;;;;;10.68;6.18;;;;;;;-146.27;62.04;48441.41;5073958;28;20438;-77
2023/03/01 10:25:55;;;;;;;9.73;6.32;;;;;;;-146.27;63.01;48403.56;5073941;28;20380;-76
2023/03/01 10:28:30;;;;;;;9.95;6.03;;;;;;;-146.27;62.29;48389.63;5073985;28;20111;-76
2023/03/01 10:30:58;;;;;;;10.32;5.97;;;;;;;-146.27;59.76;48391.63;5073785;28;20040;-75
2023/03/01 10:33:27;;;;;;;8.35;5.75;;;;;;;-146.27;56.78;48383.66;5073926;28;20028;-76
2023/03/01 10:35:53;;;;;;;12.77;6.05;;;;;;;-146.27;53.06;48381.66;5073841;28;20214;-76
2023/03/01 10:38:20;;;;;;;9.13;6.20;;;;;;;-146.27;54.85;48411.53;5076436;28;20559;-74
2023/03/01 10:40:58;;;;;;;11.23;6.55;;;;;;;-146.27;52.28;48371.69;5081969;28;20032;-75
2023/03/01 10:43:32;;;;;;;9.48;6.30;;;;;;;-146.27;52.73;48347.81;5093992;28;20016;-75
2023/03/01 10:45:57;;;;;;;9.50;6.75;;;;;;;-146.27;53.33;48383.66;5093971;28;20027;-75
2023/03/01 10:48:26;;;;;;;9.00;6.35;;;;;;;-146.27;50.55;48383.66;5093824;28;20066;-77
2023/03/01 10:51:17;;;;;;;8.57;6.18;;;;;;;-146.27;51.30;48343.81;5093681;28;20024;-76
2023/03/01 10:53:48;;;;;;;11.88;6.05;;;;;;;-146.27;49.04;48381.66;5092173;28;20016;-75
2023/03/01 10:56:15;;;;;;;10.82;5.65;;;;;;;-146.27;47.38;48395.59;5090388;28;20077;-75
2023/03/01 10:59:04;;;;;;;8.48;5.40;;;;;;;-146.27;44.85;48355.78;5081090;28;20034;-73